createdAt,value
2022-11-19T00:04:01.468Z,13.20
2022-11-19T00:09:05.658Z,14.80
2022-11-19T00:14:12.666Z,16.10
2022-11-19T00:19:14.922Z,14.40
2022-11-19T00:24:17.066Z,14.50
2022-11-19T00:29:19.159Z,13.00
2022-11-19T00:34:22.964Z,12.20
2022-11-19T00:39:24.815Z,15.80
2022-11-19T00:44:26.694Z,15.30
2022-11-19T00:49:28.556Z,13.00
2022-11-19T00:54:30.724Z,14.10
2022-11-19T00:59:32.621Z,12.30
2022-11-19T01:04:34.555Z,12.70
2022-11-19T01:09:36.465Z,14.30
2022-11-19T01:14:38.449Z,13.90
2022-11-19T01:19:40.367Z,9.10
2022-11-19T01:24:42.185Z,11.90
2022-11-19T01:29:44.112Z,13.00
2022-11-19T01:34:46.032Z,12.30
2022-11-19T01:39:48.013Z,11.50
2022-11-19T01:45:02.701Z,10.10
2022-11-19T01:50:05.750Z,13.10
2022-11-19T01:55:08.686Z,9.80
2022-11-19T02:00:11.644Z,10.70
2022-11-19T02:05:13.958Z,8.60
2022-11-19T02:10:16.131Z,8.70
2022-11-19T02:15:23.244Z,9.00
2022-11-19T02:20:34.203Z,8.30
2022-11-19T02:25:38.989Z,10.60
2022-11-19T02:30:46.710Z,11.60
2022-11-19T02:35:58.854Z,15.70
2022-11-19T02:41:32.289Z,14.60
2022-11-19T02:46:34.363Z,18.50
2022-11-19T02:51:36.398Z,16.20
2022-11-19T02:56:52.056Z,18.70
2022-11-19T03:02:12.620Z,19.40
2022-11-19T03:07:18.291Z,22.90
2022-11-19T03:12:35.545Z,19.50
2022-11-19T03:18:09.685Z,15.20
2022-11-19T03:23:27.171Z,18.30
2022-11-19T03:28:34.233Z,22.60
2022-11-19T03:33:47.487Z,21.20
2022-11-19T03:39:04.295Z,19.10
2022-11-19T03:44:18.863Z,20.70
2022-11-19T03:49:31.708Z,20.80
2022-11-19T03:54:34.268Z,20.60
2022-11-19T03:59:36.234Z,23.90
2022-11-19T04:04:39.031Z,31.40
2022-11-19T04:09:42.028Z,24.50
2022-11-19T04:14:43.932Z,30.10
2022-11-19T04:19:46.730Z,21.60
2022-11-19T04:24:48.626Z,19.80
2022-11-19T04:29:50.501Z,19.90
2022-11-19T04:34:52.361Z,18.10
2022-11-19T04:39:54.160Z,18.70
2022-11-19T04:44:56.004Z,18.90
2022-11-19T04:49:57.828Z,15.30
2022-11-19T04:54:59.640Z,16.00
2022-11-19T05:00:01.570Z,19.30
2022-11-19T05:05:03.598Z,18.10
2022-11-19T05:10:05.902Z,16.80
2022-11-19T05:15:08.713Z,21.10
2022-11-19T05:20:10.848Z,19.10
2022-11-19T05:25:12.765Z,14.80
2022-11-19T05:30:15.227Z,18.80
2022-11-19T05:35:17.214Z,22.30
2022-11-19T05:40:19.078Z,17.60
2022-11-19T05:45:21.197Z,16.80
2022-11-19T05:50:23.145Z,21.10
2022-11-19T05:55:25.128Z,18.20
2022-11-19T06:00:27.027Z,17.20
2022-11-19T06:05:28.821Z,20.10
2022-11-19T06:10:30.625Z,22.50
2022-11-19T06:15:32.454Z,17.00
2022-11-19T06:20:34.319Z,22.70
2022-11-19T06:25:36.258Z,19.70
2022-11-19T06:30:38.281Z,23.60
2022-11-19T06:35:40.134Z,24.70
2022-11-19T06:40:42.822Z,19.50
2022-11-19T06:45:44.726Z,24.80
2022-11-19T06:50:47.221Z,21.10
2022-11-19T06:55:49.111Z,19.60
2022-11-19T07:00:51.150Z,21.80
2022-11-19T07:05:59.211Z,25.40
2022-11-19T07:11:22.392Z,22.20
2022-11-19T07:16:33.253Z,23.30
2022-11-19T07:21:36.283Z,23.40
2022-11-19T07:26:38.541Z,28.40
2022-11-19T07:31:40.581Z,26.40
2022-11-19T07:36:42.869Z,26.20
2022-11-19T07:42:03.638Z,23.20
2022-11-19T07:47:08.363Z,25.60
2022-11-19T07:52:10.221Z,23.30
2022-11-19T07:57:12.277Z,20.70
2022-11-19T08:02:15.179Z,21.10
2022-11-19T08:07:17.311Z,21.60
2022-11-19T08:12:19.418Z,18.10
2022-11-19T08:17:40.022Z,22.50
2022-11-19T08:22:42.932Z,20.00
2022-11-19T08:27:44.802Z,18.80
2022-11-19T08:32:46.812Z,19.60
2022-11-19T08:37:48.829Z,22.10
2022-11-19T08:42:59.945Z,24.00
2022-11-19T08:48:05.572Z,15.70
2022-11-19T08:53:07.518Z,18.70
2022-11-19T08:58:11.435Z,14.70
2022-11-19T09:03:13.266Z,14.60
2022-11-19T09:08:15.131Z,16.00
2022-11-19T09:13:17.024Z,17.40
2022-11-19T09:18:18.932Z,15.90
2022-11-19T09:23:21.559Z,16.30
2022-11-19T09:28:23.426Z,15.00
2022-11-19T09:33:26.124Z,13.80
2022-11-19T09:38:28.498Z,12.70
2022-11-19T09:43:49.213Z,12.40
2022-11-19T09:48:55.033Z,12.40
2022-11-19T09:54:05.981Z,13.40
2022-11-19T09:59:21.733Z,15.20
2022-11-19T10:04:26.992Z,13.10
2022-11-19T10:09:31.991Z,11.80
2022-11-19T10:14:43.184Z,11.70
2022-11-19T10:20:10.291Z,9.50
2022-11-19T10:25:22.952Z,10.60
2022-11-19T10:30:29.025Z,11.00
2022-11-19T10:35:39.039Z,10.20
2022-11-19T10:40:44.985Z,10.70
2022-11-19T10:45:46.793Z,8.70
2022-11-19T10:50:49.641Z,7.60
2022-11-19T10:55:57.773Z,7.30
2022-11-19T11:01:02.658Z,8.20
2022-11-19T11:06:07.912Z,7.50
2022-11-19T11:11:11.070Z,5.90
2022-11-19T11:16:20.169Z,6.70
2022-11-19T11:21:30.606Z,7.90
2022-11-19T11:26:34.815Z,7.10
2022-11-19T11:31:47.348Z,6.70
2022-11-19T11:36:49.230Z,7.30
2022-11-19T11:42:05.410Z,8.50
2022-11-19T11:47:15.165Z,12.10
2022-11-19T11:52:33.695Z,13.60
2022-11-19T11:57:49.992Z,13.10
2022-11-19T12:03:05.945Z,32.30
2022-11-19T12:08:27.107Z,27.20
2022-11-19T12:13:43.968Z,19.30
2022-11-19T12:18:45.790Z,16.00
2022-11-19T12:24:15.910Z,15.80
2022-11-19T12:29:36.673Z,16.10
2022-11-19T12:34:57.147Z,15.90
2022-11-19T12:40:20.602Z,16.60
2022-11-19T12:45:30.628Z,14.80
2022-11-19T12:50:50.937Z,14.70
2022-11-19T12:56:15.691Z,15.00
2022-11-19T13:01:27.494Z,17.10
2022-11-19T13:06:41.721Z,40.80
2022-11-19T13:11:50.024Z,21.60
2022-11-19T13:16:54.598Z,16.80
2022-11-19T13:22:02.662Z,16.90
2022-11-19T13:27:09.667Z,17.80
2022-11-19T13:32:48.023Z,17.80
2022-11-19T13:38:02.918Z,21.30
2022-11-19T13:43:32.533Z,16.00
2022-11-19T13:48:41.689Z,11.30
2022-11-19T13:53:46.323Z,13.70
2022-11-19T13:58:51.757Z,13.40
2022-11-19T14:04:28.038Z,17.30
2022-11-19T14:09:48.739Z,13.60
2022-11-19T14:15:40.392Z,14.70
2022-11-19T14:21:02.978Z,17.60
2022-11-19T14:26:22.543Z,18.70
2022-11-19T14:31:24.543Z,15.10
2022-11-19T14:36:29.602Z,18.50
2022-11-19T14:41:33.893Z,17.90
2022-11-19T14:46:45.796Z,18.20
2022-11-19T14:51:53.656Z,19.80
2022-11-19T14:57:13.683Z,19.70
2022-11-19T15:02:34.601Z,23.20
2022-11-19T15:07:39.951Z,21.20
2022-11-19T15:12:44.913Z,24.10
2022-11-19T15:17:50.876Z,26.50
2022-11-19T15:23:06.717Z,28.20
2022-11-19T15:28:18.846Z,24.30
2022-11-19T15:33:47.159Z,22.20
2022-11-19T15:38:57.616Z,27.80
2022-11-19T15:44:04.508Z,22.00
2022-11-19T15:49:26.949Z,24.70
2022-11-19T15:54:34.704Z,23.50
2022-11-19T15:59:38.406Z,29.40
2022-11-19T16:04:41.069Z,26.80
2022-11-19T16:09:42.963Z,23.10
2022-11-19T16:15:12.309Z,32.40
2022-11-19T16:20:14.125Z,31.90
2022-11-19T16:25:31.496Z,30.50
2022-11-19T16:30:46.429Z,33.20
2022-11-19T16:35:52.829Z,38.70
2022-11-19T16:41:16.030Z,35.00
2022-11-19T16:46:22.358Z,30.20
2022-11-19T16:51:31.881Z,33.40
2022-11-19T16:56:45.935Z,35.10
2022-11-19T17:01:54.072Z,33.40
2022-11-19T17:06:57.748Z,31.00
2022-11-19T17:12:18.024Z,38.00
2022-11-19T17:17:39.980Z,39.40
2022-11-19T17:22:42.564Z,31.40
2022-11-19T17:27:51.399Z,46.50
2022-11-19T17:32:54.588Z,60.10
2022-11-19T17:37:58.931Z,98.50
2022-11-19T17:43:19.650Z,98.40
2022-11-19T17:48:24.152Z,60.20
2022-11-19T17:53:26.133Z,56.80
2022-11-19T17:58:28.086Z,62.30
2022-11-19T18:03:30.045Z,76.20
2022-11-19T18:08:33.078Z,102.40
2022-11-19T18:13:36.826Z,87.20
2022-11-19T18:18:38.704Z,91.70
2022-11-19T18:23:41.954Z,129.40
2022-11-19T18:28:47.735Z,122.40
2022-11-19T18:33:50.930Z,94.30
2022-11-19T18:38:55.757Z,84.30
2022-11-19T18:44:16.417Z,106.80
2022-11-19T18:49:18.577Z,115.00
2022-11-19T18:54:21.042Z,98.50
2022-11-19T18:59:23.960Z,116.50
2022-11-19T19:04:26.538Z,91.40
2022-11-19T19:09:28.425Z,109.30
2022-11-19T19:14:30.293Z,101.00
2022-11-19T19:19:32.193Z,101.00
2022-11-19T19:24:34.101Z,84.30
2022-11-19T19:29:35.994Z,85.10
2022-11-19T19:34:37.891Z,71.90
2022-11-19T19:39:39.777Z,73.60
2022-11-19T19:44:41.673Z,70.40
2022-11-19T19:49:43.675Z,85.20
2022-11-19T19:54:45.556Z,85.90
2022-11-19T19:59:47.432Z,96.80
2022-11-19T20:04:49.322Z,105.40
2022-11-19T20:09:51.207Z,136.60
2022-11-19T20:14:53.101Z,124.30
2022-11-19T20:19:54.924Z,129.60
2022-11-19T20:24:56.765Z,131.00
2022-11-19T20:30:00.087Z,128.70
2022-11-19T20:35:02.160Z,133.80
2022-11-19T20:40:04.263Z,141.30
2022-11-19T20:45:08.407Z,138.90
2022-11-19T20:50:10.448Z,146.50
2022-11-19T20:55:12.364Z,156.30
2022-11-19T21:00:15.373Z,146.50
2022-11-19T21:05:17.354Z,137.10
2022-11-19T21:10:19.428Z,133.20
2022-11-19T21:15:21.228Z,136.40
2022-11-19T21:20:23.332Z,120.90
2022-11-19T21:25:25.260Z,122.00
2022-11-19T21:30:27.192Z,127.10
2022-11-19T21:35:29.065Z,148.80
2022-11-19T21:40:30.974Z,158.60
2022-11-19T21:45:32.948Z,155.70
2022-11-19T21:50:38.588Z,185.20
2022-11-19T21:55:45.001Z,171.90
2022-11-19T22:00:47.135Z,140.30
2022-11-19T22:05:59.313Z,187.30
2022-11-19T22:11:21.445Z,175.10
2022-11-19T22:16:24.541Z,125.90
2022-11-19T22:21:29.254Z,105.00
2022-11-19T22:26:31.303Z,142.90
2022-11-19T22:31:34.044Z,143.90
2022-11-19T22:36:35.925Z,187.30
2022-11-19T22:41:37.732Z,181.60
2022-11-19T22:46:39.529Z,190.00
2022-11-19T22:51:41.521Z,204.90
2022-11-19T22:56:43.504Z,198.20
2022-11-19T23:01:45.335Z,207.00
2022-11-19T23:06:47.224Z,209.70
2022-11-19T23:12:07.882Z,204.20
2022-11-19T23:17:09.732Z,193.40
2022-11-19T23:22:11.537Z,202.30
2022-11-19T23:27:16.722Z,218.20
2022-11-19T23:32:22.632Z,203.90
2022-11-19T23:37:24.458Z,190.30
2022-11-19T23:42:26.409Z,189.90
2022-11-19T23:47:28.207Z,160.20
2022-11-19T23:52:30.073Z,121.50
2022-11-19T23:57:31.954Z,124.10
